North Topsail Beach, North Carolina
Current Conditions -  °F | °C
As of 12:56 AM on Thursday 23 Oct 2014 (Local Time) from KNCA Reporting Station
Clear Clear  
Wind Chill: 51°   Ceiling: Unl
Heat Index: 51°   Visibility: 10mi
Dew Point: 45°   Wind: 8mph
Humidity: 80%   Direction: 290°WNW
Pressure: 30"   Gusts: NA
Location:  34.5396°N, 77.4388°W
Report Text: KNCA 230456Z AUTO 29007KT 10SM CLR 11/07 A3000 RMK AO2 SLP160 T01060072 401940100
Loading
Personal Weather Stations






























Interactive Weather Map
Tropical Storm Tracking
New forecast layout! Learn more

10-Day Weather Forecast

Advertisements
Track Severe Weather on mobile